Scottish Viking — IBDZ — position and weather

sailwx.info

Track history (hours):
 
Tides and Currents Weather Stations Pressure Air Temp Water Temp Dewpoint Dewpoint Depression Visibility Wind Speed Wind Dir Waves Ship Positions

Scottish Viking

Last reported at 2017-Oct-16 20:41 UTC. Time now 2017-Oct-17 09:36 UTC.
Position N 58°38' E 018°16'.

Length 186 m; draft 6.4 m.

Type: Ship. MMSI: 247265800.

Date/timePositionNaut miles runAvg speedWind from/ knotsBaromVisibWave heightAir tempDewpointWater temp
2017-Oct-16 20:41N 58°38' E 018°16'318.4
2017-Oct-16 20:30N 58°41' E 018°13'917.7
2017-Oct-16 20:00N 58°48' E 018°03'713.8
2017-Oct-16 19:30N 58°55' E 017°59'1 2.1
2017-Oct-16 19:00N 58°54' E 017°58'0 0.0
2017-Oct-16 18:30N 58°54' E 017°58'0 0.0
2017-Oct-16 18:00N 58°54' E 017°58'0 0.0
2017-Oct-16 17:30N 58°54' E 017°58'0 0.0
2017-Oct-16 17:00N 58°54' E 017°58'0 0.0
2017-Oct-16 16:30N 58°54' E 017°58'0 0.0
2017-Oct-16 16:00N 58°54' E 017°58'0 0.0
2017-Oct-16 15:30N 58°54' E 017°58'0 0.0
2017-Oct-16 15:00N 58°54' E 017°58'0 0.0
2017-Oct-16 14:30N 58°54' E 017°58'0 0.0
2017-Oct-16 13:30N 58°54' E 017°58'0 0.0
2017-Oct-16 13:00N 58°54' E 017°58'0 0.0
2017-Oct-16 12:30N 58°54' E 017°58'0 0.0
2017-Oct-16 12:00N 58°54' E 017°58'0 0.0
2017-Oct-16 11:30N 58°54' E 017°58'0 0.0
2017-Oct-16 11:00N 58°54' E 017°58'0 0.0
2017-Oct-16 10:30N 58°54' E 017°58'0 0.0
2017-Oct-16 10:00N 58°54' E 017°58'0 0.0
2017-Oct-16 09:30N 58°54' E 017°58'0 0.0
2017-Oct-16 09:00N 58°54' E 017°58'0 0.0
2017-Oct-16 08:30N 58°54' E 017°58'0 0.0
2017-Oct-16 08:00N 58°54' E 017°58'0 0.0
2017-Oct-16 07:30N 58°54' E 017°58'3 5.6
2017-Oct-16 07:00N 58°53' E 018°02'3816.2
2017-Oct-16 04:38N 58°24' E 018°51'314.4
2017-Oct-16 04:26N 58°22' E 018°55'31 1.0
2017-Oct-14 20:22N 58°44' E 018°14'617.7
2017-Oct-14 20:00N 58°49' E 018°05'713.9
2017-Oct-14 19:31N 58°55' E 017°59'1 1.7
2017-Oct-14 19:00N 58°54' E 017°58'0 0.0
2017-Oct-14 18:30N 58°54' E 017°58'0 0.0
2017-Oct-14 18:00N 58°54' E 017°58'0 0.0
2017-Oct-14 17:30N 58°54' E 017°58'0 0.0
2017-Oct-14 17:00N 58°54' E 017°58'0 0.0
2017-Oct-14 16:30N 58°54' E 017°58'3 6.6
2017-Oct-14 16:00N 58°52' E 018°02'1120.6
2017-Oct-14 15:29N 58°44' E 018°15'1 0.1
2017-Oct-13 21:41N 58°45' E 018°13'419.7
2017-Oct-13 21:30N 58°47' E 018°08'816.8
2017-Oct-13 21:00N 58°54' E 018°00'1 3.0
2017-Oct-13 20:30N 58°54' E 017°58'0 0.0
2017-Oct-13 20:00N 58°54' E 017°58'0 0.0
2017-Oct-13 19:30N 58°54' E 017°58'0 0.0
2017-Oct-13 19:00N 58°54' E 017°58'0 0.0
2017-Oct-13 18:30N 58°54' E 017°58'3 5.0
2017-Oct-13 18:00N 58°53' E 018°02'1122.0
2017-Oct-13 17:30N 58°43' E 018°10'2 0.1
2017-Oct-12 20:34N 58°44' E 018°14'218.9
2017-Oct-12 20:28N 58°45' E 018°11'816.9
2017-Oct-12 20:00N 58°52' E 018°03'4 7.8
2017-Oct-12 19:30N 58°54' E 017°58'0 0.0
2017-Oct-12 19:01N 58°54' E 017°58'0 0.0
2017-Oct-12 18:31N 58°54' E 017°58'0 0.0
2017-Oct-12 18:00N 58°54' E 017°58'0 0.0
2017-Oct-12 17:31N 58°54' E 017°58'0 0.0
2017-Oct-12 17:00N 58°54' E 017°58'0 0.0
2017-Oct-12 16:31N 58°54' E 017°58'0 0.0
2017-Oct-12 16:00N 58°54' E 017°58'0 0.0
2017-Oct-12 15:30N 58°54' E 017°58'2 4.6
2017-Oct-12 15:01N 58°53' E 018°01'1121.3
2017-Oct-12 14:30N 58°45' E 018°13'1 0.0
2017-Oct-11 20:40N 58°44' E 018°14'318.8
2017-Oct-11 20:30N 58°46' E 018°10'816.0
2017-Oct-11 20:00N 58°53' E 018°02'3 5.1
2017-Oct-11 19:30N 58°54' E 017°58'0 0.0
2017-Oct-11 19:00N 58°54' E 017°58'0 0.0
2017-Oct-11 18:30N 58°54' E 017°58'0 0.0
2017-Oct-11 18:00N 58°54' E 017°58'0 0.0
2017-Oct-11 17:30N 58°54' E 017°58'0 0.0
2017-Oct-11 17:00N 58°54' E 017°58'16 0.8
2017-Oct-10 20:44N 58°42' E 018°17'518.3
2017-Oct-10 20:29N 58°45' E 018°11'816.2
2017-Oct-10 20:01N 58°52' E 018°03'4 7.9
2017-Oct-10 19:30N 58°54' E 017°58'0 0.0
2017-Oct-10 19:00N 58°54' E 017°58'0 0.0
2017-Oct-10 18:30N 58°54' E 017°58'0 0.0
2017-Oct-10 18:00N 58°54' E 017°58'0 0.0
2017-Oct-10 17:30N 58°54' E 017°58'0 0.0
2017-Oct-10 17:00N 58°54' E 017°58'0 0.0
2017-Oct-10 16:30N 58°54' E 017°58'0 0.0
2017-Oct-10 16:00N 58°54' E 017°58'0 0.0
2017-Oct-10 15:30N 58°54' E 017°58'3 6.3
2017-Oct-10 15:00N 58°53' E 018°02'10 0.6
2017-Oct-09 20:33N 58°44' E 018°13'119.1
2017-Oct-09 20:30N 58°44' E 018°12'816.7
2017-Oct-09 20:01N 58°51' E 018°03'4 8.7
2017-Oct-09 19:30N 58°54' E 017°58'0 0.2
2017-Oct-09 19:00N 58°54' E 017°58'0 0.0
2017-Oct-09 18:30N 58°54' E 017°58'0 0.0
2017-Oct-09 18:00N 58°54' E 017°58'0 0.0
2017-Oct-09 17:30N 58°54' E 017°58'0 0.0
2017-Oct-09 17:00N 58°54' E 017°58'0 0.0
2017-Oct-09 16:30N 58°54' E 017°58'0 0.0
2017-Oct-09 16:00N 58°54' E 017°58'0 0.0
2017-Oct-09 15:30N 58°54' E 017°58'0 0.0
2017-Oct-09 15:00N 58°54' E 017°58'0 0.0
2017-Oct-09 14:30N 58°54' E 017°58'0 0.0
2017-Oct-09 14:00N 58°54' E 017°58'0 0.0
2017-Oct-09 13:30N 58°54' E 017°58'0 0.0
2017-Oct-09 13:00N 58°54' E 017°58'0 0.0
2017-Oct-09 12:30N 58°54' E 017°58'0 0.0
2017-Oct-09 12:00N 58°54' E 017°58'0 0.0
2017-Oct-09 11:30N 58°54' E 017°58'0 0.0
2017-Oct-09 11:00N 58°54' E 017°58'0 0.0
2017-Oct-09 10:30N 58°54' E 017°58'0 0.0
2017-Oct-09 10:00N 58°54' E 017°58'0 0.0
2017-Oct-09 09:30N 58°54' E 017°58'0 0.0
2017-Oct-09 09:00N 58°54' E 017°58'0 0.0
2017-Oct-09 08:30N 58°54' E 017°58'0 0.0
2017-Oct-09 08:00N 58°54' E 017°58'0 0.0
2017-Oct-09 07:30N 58°54' E 017°58'3 5.7
2017-Oct-09 07:00N 58°53' E 018°02'918.8
2017-Oct-09 06:30N 58°45' E 018°12'1 0.0
2017-Oct-07 20:22N 58°44' E 018°12'616.5
2017-Oct-07 20:00N 58°49' E 018°05'713.8
2017-Oct-07 19:30N 58°55' E 017°59'1 1.5
2017-Oct-07 19:00N 58°54' E 017°58'0 0.0
2017-Oct-07 18:30N 58°54' E 017°58'0 0.0
2017-Oct-07 18:00N 58°54' E 017°58'0 0.0
2017-Oct-07 17:30N 58°54' E 017°58'0 0.0
2017-Oct-07 17:00N 58°54' E 017°58'0 0.0
2017-Oct-07 16:30N 58°54' E 017°58'1 2.6
2017-Oct-07 16:01N 58°55' E 018°00'917.2
2017-Oct-07 15:30N 58°47' E 018°09'4 0.2
2017-Oct-06 21:41N 58°44' E 018°14'319.9
2017-Oct-06 21:30N 58°46' E 018°10'816.9
2017-Oct-06 21:01N 58°54' E 018°01'  
Track history (hours):
 
Tides and Currents Weather Stations Pressure Air Temp Water Temp Dewpoint Dewpoint Depression Visibility Wind Speed Wind Dir Waves Ship Positions

Scottish Viking

Last reported at 2017-Oct-16 20:41 UTC. Time now 2017-Oct-17 09:36 UTC.
Position N 58°38' E 018°16'.

Length 186 m; draft 6.4 m.

Type: Ship. MMSI: 247265800.

Date/timePositionNaut miles runAvg speedWind from/ knotsBaromVisibWave heightAir tempDewpointWater temp
2017-Oct-16 20:41N 58°38' E 018°16'318.4
2017-Oct-16 20:30N 58°41' E 018°13'917.7
2017-Oct-16 20:00N 58°48' E 018°03'713.8
2017-Oct-16 19:30N 58°55' E 017°59'1 2.1
2017-Oct-16 19:00N 58°54' E 017°58'0 0.0
2017-Oct-16 18:30N 58°54' E 017°58'0 0.0
2017-Oct-16 18:00N 58°54' E 017°58'0 0.0
2017-Oct-16 17:30N 58°54' E 017°58'0 0.0
2017-Oct-16 17:00N 58°54' E 017°58'0 0.0
2017-Oct-16 16:30N 58°54' E 017°58'0 0.0
2017-Oct-16 16:00N 58°54' E 017°58'0 0.0
2017-Oct-16 15:30N 58°54' E 017°58'0 0.0
2017-Oct-16 15:00N 58°54' E 017°58'0 0.0
2017-Oct-16 14:30N 58°54' E 017°58'0 0.0
2017-Oct-16 13:30N 58°54' E 017°58'0 0.0
2017-Oct-16 13:00N 58°54' E 017°58'0 0.0
2017-Oct-16 12:30N 58°54' E 017°58'0 0.0
2017-Oct-16 12:00N 58°54' E 017°58'0 0.0
2017-Oct-16 11:30N 58°54' E 017°58'0 0.0
2017-Oct-16 11:00N 58°54' E 017°58'0 0.0
2017-Oct-16 10:30N 58°54' E 017°58'0 0.0
2017-Oct-16 10:00N 58°54' E 017°58'0 0.0
2017-Oct-16 09:30N 58°54' E 017°58'0 0.0
2017-Oct-16 09:00N 58°54' E 017°58'0 0.0
2017-Oct-16 08:30N 58°54' E 017°58'0 0.0
2017-Oct-16 08:00N 58°54' E 017°58'0 0.0
2017-Oct-16 07:30N 58°54' E 017°58'3 5.6
2017-Oct-16 07:00N 58°53' E 018°02'3816.2
2017-Oct-16 04:38N 58°24' E 018°51'314.4
2017-Oct-16 04:26N 58°22' E 018°55'31 1.0
2017-Oct-14 20:22N 58°44' E 018°14'617.7
2017-Oct-14 20:00N 58°49' E 018°05'713.9
2017-Oct-14 19:31N 58°55' E 017°59'1 1.7
2017-Oct-14 19:00N 58°54' E 017°58'0 0.0
2017-Oct-14 18:30N 58°54' E 017°58'0 0.0
2017-Oct-14 18:00N 58°54' E 017°58'0 0.0
2017-Oct-14 17:30N 58°54' E 017°58'0 0.0
2017-Oct-14 17:00N 58°54' E 017°58'0 0.0
2017-Oct-14 16:30N 58°54' E 017°58'3 6.6
2017-Oct-14 16:00N 58°52' E 018°02'1120.6
2017-Oct-14 15:29N 58°44' E 018°15'1 0.1
2017-Oct-13 21:41N 58°45' E 018°13'419.7
2017-Oct-13 21:30N 58°47' E 018°08'816.8
2017-Oct-13 21:00N 58°54' E 018°00'1 3.0
2017-Oct-13 20:30N 58°54' E 017°58'0 0.0
2017-Oct-13 20:00N 58°54' E 017°58'0 0.0
2017-Oct-13 19:30N 58°54' E 017°58'0 0.0
2017-Oct-13 19:00N 58°54' E 017°58'0 0.0
2017-Oct-13 18:30N 58°54' E 017°58'3 5.0
2017-Oct-13 18:00N 58°53' E 018°02'1122.0
2017-Oct-13 17:30N 58°43' E 018°10'2 0.1
2017-Oct-12 20:34N 58°44' E 018°14'218.9
2017-Oct-12 20:28N 58°45' E 018°11'816.9
2017-Oct-12 20:00N 58°52' E 018°03'4 7.8
2017-Oct-12 19:30N 58°54' E 017°58'0 0.0
2017-Oct-12 19:01N 58°54' E 017°58'0 0.0
2017-Oct-12 18:31N 58°54' E 017°58'0 0.0
2017-Oct-12 18:00N 58°54' E 017°58'0 0.0
2017-Oct-12 17:31N 58°54' E 017°58'0 0.0
2017-Oct-12 17:00N 58°54' E 017°58'0 0.0
2017-Oct-12 16:31N 58°54' E 017°58'0 0.0
2017-Oct-12 16:00N 58°54' E 017°58'0 0.0
2017-Oct-12 15:30N 58°54' E 017°58'2 4.6
2017-Oct-12 15:01N 58°53' E 018°01'1121.3
2017-Oct-12 14:30N 58°45' E 018°13'1 0.0
2017-Oct-11 20:40N 58°44' E 018°14'318.8
2017-Oct-11 20:30N 58°46' E 018°10'816.0
2017-Oct-11 20:00N 58°53' E 018°02'3 5.1
2017-Oct-11 19:30N 58°54' E 017°58'0 0.0
2017-Oct-11 19:00N 58°54' E 017°58'0 0.0
2017-Oct-11 18:30N 58°54' E 017°58'0 0.0
2017-Oct-11 18:00N 58°54' E 017°58'0 0.0
2017-Oct-11 17:30N 58°54' E 017°58'0 0.0
2017-Oct-11 17:00N 58°54' E 017°58'16 0.8
2017-Oct-10 20:44N 58°42' E 018°17'518.3
2017-Oct-10 20:29N 58°45' E 018°11'816.2
2017-Oct-10 20:01N 58°52' E 018°03'4 7.9
2017-Oct-10 19:30N 58°54' E 017°58'0 0.0
2017-Oct-10 19:00N 58°54' E 017°58'0 0.0
2017-Oct-10 18:30N 58°54' E 017°58'0 0.0
2017-Oct-10 18:00N 58°54' E 017°58'0 0.0
2017-Oct-10 17:30N 58°54' E 017°58'0 0.0
2017-Oct-10 17:00N 58°54' E 017°58'0 0.0
2017-Oct-10 16:30N 58°54' E 017°58'0 0.0
2017-Oct-10 16:00N 58°54' E 017°58'0 0.0
2017-Oct-10 15:30N 58°54' E 017°58'3 6.3
2017-Oct-10 15:00N 58°53' E 018°02'10 0.6
2017-Oct-09 20:33N 58°44' E 018°13'119.1
2017-Oct-09 20:30N 58°44' E 018°12'816.7
2017-Oct-09 20:01N 58°51' E 018°03'4 8.7
2017-Oct-09 19:30N 58°54' E 017°58'0 0.2
2017-Oct-09 19:00N 58°54' E 017°58'0 0.0
2017-Oct-09 18:30N 58°54' E 017°58'0 0.0
2017-Oct-09 18:00N 58°54' E 017°58'0 0.0
2017-Oct-09 17:30N 58°54' E 017°58'0 0.0
2017-Oct-09 17:00N 58°54' E 017°58'0 0.0
2017-Oct-09 16:30N 58°54' E 017°58'0 0.0
2017-Oct-09 16:00N 58°54' E 017°58'0 0.0
2017-Oct-09 15:30N 58°54' E 017°58'0 0.0
2017-Oct-09 15:00N 58°54' E 017°58'0 0.0
2017-Oct-09 14:30N 58°54' E 017°58'0 0.0
2017-Oct-09 14:00N 58°54' E 017°58'0 0.0
2017-Oct-09 13:30N 58°54' E 017°58'0 0.0
2017-Oct-09 13:00N 58°54' E 017°58'0 0.0
2017-Oct-09 12:30N 58°54' E 017°58'0 0.0
2017-Oct-09 12:00N 58°54' E 017°58'0 0.0
2017-Oct-09 11:30N 58°54' E 017°58'0 0.0
2017-Oct-09 11:00N 58°54' E 017°58'0 0.0
2017-Oct-09 10:30N 58°54' E 017°58'0 0.0
2017-Oct-09 10:00N 58°54' E 017°58'0 0.0
2017-Oct-09 09:30N 58°54' E 017°58'0 0.0
2017-Oct-09 09:00N 58°54' E 017°58'0 0.0
2017-Oct-09 08:30N 58°54' E 017°58'0 0.0
2017-Oct-09 08:00N 58°54' E 017°58'0 0.0
2017-Oct-09 07:30N 58°54' E 017°58'3 5.7
2017-Oct-09 07:00N 58°53' E 018°02'918.8
2017-Oct-09 06:30N 58°45' E 018°12'1 0.0
2017-Oct-07 20:22N 58°44' E 018°12'616.5
2017-Oct-07 20:00N 58°49' E 018°05'713.8
2017-Oct-07 19:30N 58°55' E 017°59'1 1.5
2017-Oct-07 19:00N 58°54' E 017°58'0 0.0
2017-Oct-07 18:30N 58°54' E 017°58'0 0.0
2017-Oct-07 18:00N 58°54' E 017°58'0 0.0
2017-Oct-07 17:30N 58°54' E 017°58'0 0.0
2017-Oct-07 17:00N 58°54' E 017°58'0 0.0
2017-Oct-07 16:30N 58°54' E 017°58'1 2.6
2017-Oct-07 16:01N 58°55' E 018°00'917.2
2017-Oct-07 15:30N 58°47' E 018°09'4 0.2
2017-Oct-06 21:41N 58°44' E 018°14'319.9
2017-Oct-06 21:30N 58°46' E 018°10'816.9
2017-Oct-06 21:01N 58°54' E 018°01'  

Dump ship's entire track history